Time;durP1;ratioP1;P1;durP2;ratioP2;P2;SDS_P1;SDS_P2;PMS_P1;PMS_P2;Temp;Humidity;BMP_temperature;BMP_pressure;BME280_temperature;BME280_humidity;BME280_pressure;Samples;Min_cycle;Max_cycle;Signal;HPM_P1;HPM_P2
2021/12/27 00:01:30;;;;;;;27.92;15.60;;;;;;;;;;5043319;28;20039;-45
2021/12/27 00:03:56;;;;;;;25.27;14.32;;;;;;;;;;5043134;28;20128;-42
2021/12/27 00:06:23;;;;;;;41.17;19.83;;;;;;;;;;5042637;28;20342;-42
2021/12/27 00:08:50;;;;;;;62.85;30.02;;;;;;;;;;5042585;28;20024;-42
2021/12/27 00:11:16;;;;;;;40.17;20.38;;;;;;;;;;5042071;28;20021;-41
2021/12/27 00:13:42;;;;;;;36.30;19.40;;;;;;;;;;5042879;28;20013;-43
2021/12/27 00:16:08;;;;;;;34.53;17.23;;;;;;;;;;5043684;28;20052;-47
2021/12/27 00:18:35;;;;;;;33.22;17.25;;;;;;;;;;5044589;28;20029;-45
2021/12/27 00:21:01;;;;;;;32.72;15.70;;;;;;;;;;5044595;28;20035;-47
2021/12/27 00:23:27;;;;;;;24.88;11.82;;;;;;;;;;5042925;28;20134;-48
2021/12/27 00:25:53;;;;;;;38.60;20.35;;;;;;;;;;5044129;28;20029;-45
2021/12/27 00:28:19;;;;;;;36.63;16.95;;;;;;;;;;5043594;28;20132;-45
2021/12/27 00:30:45;;;;;;;20.67;12.10;;;;;;;;;;5044055;28;20029;-45
2021/12/27 00:33:12;;;;;;;31.35;16.35;;;;;;;;;;5042532;28;20385;-44
2021/12/27 00:35:39;;;;;;;57.05;29.85;;;;;;;;;;5043179;28;20024;-42
2021/12/27 00:38:06;;;;;;;42.58;22.63;;;;;;;;;;5042338;28;20021;-42
2021/12/27 00:40:32;;;;;;;43.28;21.27;;;;;;;;;;5041926;28;20029;-42
2021/12/27 00:42:58;;;;;;;48.35;22.77;;;;;;;;;;5042655;28;20381;-45
2021/12/27 00:45:24;;;;;;;55.67;28.05;;;;;;;;;;5043417;28;20036;-42
2021/12/27 00:47:50;;;;;;;52.53;27.50;;;;;;;;;;5041813;28;20033;-44
2021/12/27 00:50:19;;;;;;;57.10;28.13;;;;;;;;;;5068198;28;20096;-44
2021/12/27 00:52:46;;;;;;;46.05;23.90;;;;;;;;;;5072885;28;20036;-49
2021/12/27 00:55:15;;;;;;;48.15;23.85;;;;;;;;;;5073061;28;20409;-46
2021/12/27 00:57:42;;;;;;;38.05;18.38;;;;;;;;;;5072888;28;20536;-44
2021/12/27 01:00:11;;;;;;;32.13;16.65;;;;;;;;;;5072992;28;20025;-41
2021/12/27 01:02:37;;;;;;;49.83;25.00;;;;;;;;;;5072779;28;20477;-41
2021/12/27 01:05:03;;;;;;;32.58;15.98;;;;;;;;;;5072972;28;20049;-41
2021/12/27 01:07:29;;;;;;;40.80;18.42;;;;;;;;;;5072471;28;20028;-45
2021/12/27 01:12:47;;;;;;;40.17;19.95;;;;;;;;;;5072816;28;20098;-41
2021/12/27 01:17:41;;;;;;;28.67;14.40;;;;;;;;;;5069049;28;20384;-41
2021/12/27 01:20:09;;;;;;;23.50;13.07;;;;;;;;;;5052707;28;20029;-47
2021/12/27 01:22:35;;;;;;;73.75;33.47;;;;;;;;;;5054385;28;20116;-41
2021/12/27 01:25:02;;;;;;;43.53;21.17;;;;;;;;;;5056771;28;20358;-43
2021/12/27 01:27:28;;;;;;;31.02;15.80;;;;;;;;;;5056343;28;20163;-42
2021/12/27 01:29:54;;;;;;;42.58;22.90;;;;;;;;;;5056560;28;20025;-49
2021/12/27 01:32:21;;;;;;;57.83;29.05;;;;;;;;;;5056429;28;20029;-41
2021/12/27 01:34:47;;;;;;;40.13;18.73;;;;;;;;;;5056333;28;20028;-42
2021/12/27 01:37:13;;;;;;;31.20;16.00;;;;;;;;;;5056288;28;20029;-55
2021/12/27 01:39:39;;;;;;;40.38;21.77;;;;;;;;;;5056509;28;20177;-55
2021/12/27 01:42:05;;;;;;;25.65;14.07;;;;;;;;;;5056436;28;20037;-53
2021/12/27 01:44:31;;;;;;;33.33;18.00;;;;;;;;;;5056333;28;20040;-53
2021/12/27 01:46:57;;;;;;;31.77;16.27;;;;;;;;;;5056432;28;20036;-53
2021/12/27 01:49:24;;;;;;;39.17;18.42;;;;;;;;;;5056495;28;20092;-51
2021/12/27 01:51:50;;;;;;;54.95;27.23;;;;;;;;;;5055743;28;20029;-48
2021/12/27 01:54:16;;;;;;;38.00;20.27;;;;;;;;;;5060797;28;20079;-49
2021/12/27 01:56:44;;;;;;;24.95;14.63;;;;;;;;;;5052957;28;20512;-48
2021/12/27 01:59:10;;;;;;;38.83;21.23;;;;;;;;;;5055980;28;20510;-47
2021/12/27 02:01:36;;;;;;;53.08;27.20;;;;;;;;;;5055799;28;20067;-52
2021/12/27 02:04:02;;;;;;;42.50;21.38;;;;;;;;;;5055959;28;20103;-51
2021/12/27 02:06:31;;;;;;;46.53;21.77;;;;;;;;;;5055907;28;20025;-51
2021/12/27 02:08:57;;;;;;;47.80;24.77;;;;;;;;;;5055981;28;20154;-49
2021/12/27 02:11:23;;;;;;;62.03;29.60;;;;;;;;;;5055874;28;20074;-49
2021/12/27 02:13:50;;;;;;;44.15;21.85;;;;;;;;;;5055554;28;20028;-44
2021/12/27 02:16:20;;;;;;;45.92;22.58;;;;;;;;;;5092528;28;20504;-51
2021/12/27 02:18:46;;;;;;;41.47;20.65;;;;;;;;;;5095974;28;20032;-50
2021/12/27 02:21:13;;;;;;;59.88;28.10;;;;;;;;;;5095816;28;20055;-43
2021/12/27 02:23:41;;;;;;;41.80;22.48;;;;;;;;;;5095923;28;20076;-49
2021/12/27 02:26:07;;;;;;;49.30;25.52;;;;;;;;;;5095777;28;20025;-49
2021/12/27 02:28:33;;;;;;;49.45;25.58;;;;;;;;;;5095899;28;20413;-51
2021/12/27 02:31:00;;;;;;;30.83;16.23;;;;;;;;;;5095735;28;20376;-50
2021/12/27 02:33:26;;;;;;;42.17;22.05;;;;;;;;;;5094783;28;20062;-50
2021/12/27 02:35:53;;;;;;;59.60;29.08;;;;;;;;;;5095493;28;20020;-50
2021/12/27 02:38:21;;;;;;;40.28;18.75;;;;;;;;;;5095524;28;20024;-49
2021/12/27 02:40:47;;;;;;;43.03;21.33;;;;;;;;;;5095576;28;20050;-51
2021/12/27 02:43:17;;;;;;;35.65;18.63;;;;;;;;;;5095490;28;20060;-51
2021/12/27 02:45:45;;;;;;;39.35;20.73;;;;;;;;;;5095454;28;20492;-52
2021/12/27 02:48:12;;;;;;;47.35;24.55;;;;;;;;;;5095496;28;20028;-52
2021/12/27 02:50:39;;;;;;;33.67;18.52;;;;;;;;;;5095406;28;20051;-52
2021/12/27 02:53:06;;;;;;;36.55;19.00;;;;;;;;;;5095617;28;20095;-52
2021/12/27 02:55:32;;;;;;;50.65;25.52;;;;;;;;;;5095349;28;20426;-51
2021/12/27 02:57:58;;;;;;;37.97;19.40;;;;;;;;;;5095411;28;20107;-51
2021/12/27 03:00:29;;;;;;;39.83;19.85;;;;;;;;;;5095288;28;20081;-52
2021/12/27 03:02:57;;;;;;;55.75;27.17;;;;;;;;;;5095216;28;20070;-50
2021/12/27 03:05:24;;;;;;;38.30;19.90;;;;;;;;;;5095132;28;20051;-50
2021/12/27 03:07:54;;;;;;;34.35;16.90;;;;;;;;;;5095106;28;20037;-50
2021/12/27 03:10:21;;;;;;;32.70;17.08;;;;;;;;;;5095171;28;20031;-51
2021/12/27 03:12:51;;;;;;;29.90;17.20;;;;;;;;;;5094960;28;20031;-51
2021/12/27 03:15:18;;;;;;;35.63;19.42;;;;;;;;;;5094674;28;20067;-51
2021/12/27 03:17:45;;;;;;;34.75;20.23;;;;;;;;;;5094907;28;20408;-52
2021/12/27 03:20:13;;;;;;;24.98;14.93;;;;;;;;;;5095123;28;20464;-52
2021/12/27 03:22:41;;;;;;;25.73;14.90;;;;;;;;;;5094805;28;20039;-51
2021/12/27 03:25:09;;;;;;;23.98;13.27;;;;;;;;;;5094865;28;20399;-48
2021/12/27 03:27:35;;;;;;;25.30;14.77;;;;;;;;;;5094884;28;20386;-51
2021/12/27 03:30:01;;;;;;;23.00;13.45;;;;;;;;;;5094789;28;20024;-52
2021/12/27 03:32:27;;;;;;;28.58;16.98;;;;;;;;;;5094634;28;20028;-50
2021/12/27 03:34:57;;;;;;;33.42;18.42;;;;;;;;;;5094688;28;20024;-50
2021/12/27 03:37:24;;;;;;;30.35;15.48;;;;;;;;;;5094572;28;20016;-51
2021/12/27 03:39:50;;;;;;;40.85;20.23;;;;;;;;;;5094650;28;20016;-53
2021/12/27 03:42:17;;;;;;;29.02;15.35;;;;;;;;;;5094633;28;20386;-51
2021/12/27 03:44:43;;;;;;;25.85;15.02;;;;;;;;;;5094222;28;20021;-51
2021/12/27 03:47:10;;;;;;;33.72;18.42;;;;;;;;;;5094357;28;20111;-51
2021/12/27 03:49:36;;;;;;;25.58;13.60;;;;;;;;;;5094332;28;20012;-49
2021/12/27 03:52:02;;;;;;;37.97;17.55;;;;;;;;;;5094736;28;20028;-51
2021/12/27 03:54:28;;;;;;;34.22;15.27;;;;;;;;;;5094319;28;20020;-51
2021/12/27 03:56:54;;;;;;;37.22;18.02;;;;;;;;;;5094242;28;20024;-48
2021/12/27 03:59:36;;;;;;;29.23;15.98;;;;;;;;;;5094148;28;20502;-52
2021/12/27 04:02:06;;;;;;;33.28;18.23;;;;;;;;;;5093921;28;20028;-52
2021/12/27 04:04:33;;;;;;;31.48;17.55;;;;;;;;;;5094126;28;20444;-50
2021/12/27 04:07:00;;;;;;;26.30;14.38;;;;;;;;;;5094113;28;20024;-49
2021/12/27 04:09:26;;;;;;;30.58;17.08;;;;;;;;;;5075882;28;20028;-47
2021/12/27 04:11:52;;;;;;;28.88;16.58;;;;;;;;;;5094386;28;20103;-50
2021/12/27 04:14:18;;;;;;;28.98;17.25;;;;;;;;;;5093657;28;20028;-47
2021/12/27 04:16:46;;;;;;;29.17;16.33;;;;;;;;;;5093796;28;20040;-49
2021/12/27 04:19:12;;;;;;;26.38;16.02;;;;;;;;;;5094012;28;20472;-45
2021/12/27 04:21:38;;;;;;;24.75;14.88;;;;;;;;;;5093737;28;20024;-44
2021/12/27 04:24:04;;;;;;;31.98;18.05;;;;;;;;;;5093929;28;20034;-52
2021/12/27 04:26:31;;;;;;;28.00;15.20;;;;;;;;;;5093870;28;20028;-54
2021/12/27 04:28:57;;;;;;;27.20;16.02;;;;;;;;;;5093644;28;20035;-51
2021/12/27 04:31:23;;;;;;;25.58;14.77;;;;;;;;;;5093606;28;20424;-53
2021/12/27 04:33:49;;;;;;;26.80;15.10;;;;;;;;;;5093815;28;20365;-53
2021/12/27 04:36:15;;;;;;;28.88;17.38;;;;;;;;;;5093684;28;20020;-51
2021/12/27 04:38:42;;;;;;;34.10;19.00;;;;;;;;;;5093746;28;20031;-53
2021/12/27 04:41:09;;;;;;;23.75;15.18;;;;;;;;;;5093462;28;20486;-53
2021/12/27 04:43:35;;;;;;;36.85;21.15;;;;;;;;;;5093315;28;20039;-52
2021/12/27 04:46:01;;;;;;;27.65;18.25;;;;;;;;;;5093571;28;20043;-51
2021/12/27 04:48:28;;;;;;;29.20;16.27;;;;;;;;;;5075819;28;20020;-51
2021/12/27 04:50:54;;;;;;;24.65;14.95;;;;;;;;;;5093496;28;20024;-50
2021/12/27 04:53:21;;;;;;;21.45;13.90;;;;;;;;;;5093357;28;20031;-51
2021/12/27 04:55:47;;;;;;;25.38;15.32;;;;;;;;;;5093429;28;20055;-51
2021/12/27 04:58:16;;;;;;;25.48;15.52;;;;;;;;;;5096421;28;20035;-48
2021/12/27 05:00:43;;;;;;;28.73;15.90;;;;;;;;;;5097538;28;20095;-48
2021/12/27 05:03:09;;;;;;;27.92;15.00;;;;;;;;;;5097785;28;20480;-49
2021/12/27 05:05:36;;;;;;;32.38;18.83;;;;;;;;;;5097435;28;20060;-53
2021/12/27 05:08:03;;;;;;;26.95;16.05;;;;;;;;;;5097652;28;20020;-52
2021/12/27 05:10:30;;;;;;;25.02;15.80;;;;;;;;;;5097658;28;20457;-49
2021/12/27 05:12:56;;;;;;;33.03;18.85;;;;;;;;;;5097498;28;20028;-50
2021/12/27 05:15:23;;;;;;;30.27;18.55;;;;;;;;;;5097080;28;20484;-51
2021/12/27 05:17:49;;;;;;;32.08;18.95;;;;;;;;;;5097499;28;20036;-51
2021/12/27 05:20:15;;;;;;;30.70;17.77;;;;;;;;;;5097446;28;20024;-52
2021/12/27 05:22:43;;;;;;;33.67;19.42;;;;;;;;;;5097199;28;20059;-47
2021/12/27 05:25:16;;;;;;;31.02;17.13;;;;;;;;;;5097310;28;20017;-49
2021/12/27 05:27:42;;;;;;;31.65;17.52;;;;;;;;;;5097098;28;20020;-52
2021/12/27 05:30:09;;;;;;;34.63;18.30;;;;;;;;;;5096962;28;20140;-51
2021/12/27 05:32:36;;;;;;;34.03;19.70;;;;;;;;;;5096986;28;20502;-51
2021/12/27 05:35:05;;;;;;;28.25;16.33;;;;;;;;;;5097140;28;20074;-56
2021/12/27 05:37:32;;;;;;;39.10;20.30;;;;;;;;;;5096893;28;20031;-51
2021/12/27 05:40:04;;;;;;;39.97;18.33;;;;;;;;;;5096959;28;20027;-50
2021/12/27 05:42:30;;;;;;;33.50;18.02;;;;;;;;;;5096767;28;20105;-48
2021/12/27 05:44:56;;;;;;;37.92;17.70;;;;;;;;;;5096526;28;20104;-54
2021/12/27 05:47:22;;;;;;;30.45;17.45;;;;;;;;;;5096728;28;20036;-54
2021/12/27 05:49:48;;;;;;;28.75;15.65;;;;;;;;;;5096708;28;20041;-54
2021/12/27 05:52:15;;;;;;;26.77;16.55;;;;;;;;;;5096862;28;20407;-53
2021/12/27 05:54:41;;;;;;;33.83;19.65;;;;;;;;;;5096610;28;20027;-53
2021/12/27 06:28:38;;;;;;;46.25;26.88;;;;;;;;;;5110020;27;20380;-45
2021/12/27 06:31:05;;;;;;;47.15;26.90;;;;;;;;;;5109473;28;20028;-45
2021/12/27 06:33:32;;;;;;;41.00;23.13;;;;;;;;;;5109800;28;20091;-54
2021/12/27 06:35:58;;;;;;;42.60;24.38;;;;;;;;;;5109536;28;20023;-51
2021/12/27 06:38:24;;;;;;;53.85;28.98;;;;;;;;;;5109487;28;20469;-52
2021/12/27 06:40:51;;;;;;;33.15;20.05;;;;;;;;;;5109737;28;20020;-50
2021/12/27 06:43:24;;;;;;;39.60;22.67;;;;;;;;;;5109723;28;20855;-49
2021/12/27 06:45:50;;;;;;;33.33;19.25;;;;;;;;;;5109641;28;20016;-57
2021/12/27 06:48:16;;;;;;;27.25;17.73;;;;;;;;;;5109324;28;20051;-58
2021/12/27 06:50:43;;;;;;;33.33;19.90;;;;;;;;;;5109571;28;20047;-56
2021/12/27 06:53:11;;;;;;;35.10;21.17;;;;;;;;;;5109233;28;20114;-56
2021/12/27 06:55:37;;;;;;;42.85;24.80;;;;;;;;;;5109084;28;20574;-55
2021/12/27 06:58:03;;;;;;;36.13;21.52;;;;;;;;;;5109272;28;20043;-56
2021/12/27 07:00:29;;;;;;;39.95;21.83;;;;;;;;;;5109239;28;20048;-57
2021/12/27 07:02:55;;;;;;;32.88;19.63;;;;;;;;;;5109610;28;20366;-58
2021/12/27 07:05:21;;;;;;;35.17;20.10;;;;;;;;;;5109488;28;20102;-57
2021/12/27 07:07:48;;;;;;;31.30;18.60;;;;;;;;;;5109190;28;20073;-58
2021/12/27 07:10:15;;;;;;;26.30;16.15;;;;;;;;;;5108997;28;20028;-60
2021/12/27 07:12:41;;;;;;;31.17;16.67;;;;;;;;;;5109343;28;20426;-61
2021/12/27 07:15:08;;;;;;;40.28;23.90;;;;;;;;;;5107552;28;20024;-60
2021/12/27 07:17:34;;;;;;;29.58;18.15;;;;;;;;;;5109178;28;20035;-57
2021/12/27 07:20:00;;;;;;;24.45;16.48;;;;;;;;;;5108749;28;20099;-58
2021/12/27 07:22:26;;;;;;;29.88;18.00;;;;;;;;;;5108820;28;20024;-58
2021/12/27 07:24:54;;;;;;;32.83;19.27;;;;;;;;;;5108032;28;20059;-59
2021/12/27 07:27:20;;;;;;;34.92;21.05;;;;;;;;;;5107757;28;20040;-57
2021/12/27 07:29:46;;;;;;;50.63;26.77;;;;;;;;;;5094716;28;20453;-57
2021/12/27 07:32:12;;;;;;;46.05;26.38;;;;;;;;;;5094886;28;20063;-57
2021/12/27 07:34:39;;;;;;;38.30;21.88;;;;;;;;;;5095214;28;20048;-58
2021/12/27 07:37:05;;;;;;;35.25;20.58;;;;;;;;;;5094768;28;20032;-58
2021/12/27 07:39:31;;;;;;;50.42;25.63;;;;;;;;;;5094989;28;20385;-57
2021/12/27 07:41:57;;;;;;;28.50;17.45;;;;;;;;;;5094753;28;20024;-58
2021/12/27 07:44:23;;;;;;;42.15;24.13;;;;;;;;;;5094914;28;20362;-58
2021/12/27 07:46:51;;;;;;;43.10;23.08;;;;;;;;;;5094764;28;20032;-55
2021/12/27 07:49:17;;;;;;;54.47;29.17;;;;;;;;;;5094579;28;20111;-56
2021/12/27 07:51:43;;;;;;;72.70;38.67;;;;;;;;;;5094908;28;20017;-56
2021/12/27 07:54:10;;;;;;;53.70;28.35;;;;;;;;;;5094515;28;20031;-57
2021/12/27 07:56:37;;;;;;;40.78;23.58;;;;;;;;;;5094506;28;20419;-57
2021/12/27 07:59:04;;;;;;;33.25;20.65;;;;;;;;;;5094607;28;20081;-57
2021/12/27 08:01:35;;;;;;;52.83;29.67;;;;;;;;;;5094489;28;20020;-53
2021/12/27 08:04:02;;;;;;;37.22;23.92;;;;;;;;;;5094412;28;20036;-56
2021/12/27 08:06:28;;;;;;;42.00;25.60;;;;;;;;;;5094668;28;20507;-56
2021/12/27 08:08:54;;;;;;;39.40;24.15;;;;;;;;;;5094473;28;20024;-57
2021/12/27 08:11:20;;;;;;;36.25;22.70;;;;;;;;;;5094178;28;20028;-54
2021/12/27 08:13:47;;;;;;;36.40;22.65;;;;;;;;;;5093391;28;20399;-57
2021/12/27 08:16:13;;;;;;;44.10;27.40;;;;;;;;;;5093899;28;20050;-57
2021/12/27 08:18:42;;;;;;;65.88;39.53;;;;;;;;;;5094304;28;20028;-57
2021/12/27 08:21:08;;;;;;;48.92;30.90;;;;;;;;;;5094052;28;20468;-56
2021/12/27 08:23:34;;;;;;;47.50;29.55;;;;;;;;;;5094287;28;20028;-56
2021/12/27 08:26:00;;;;;;;38.85;25.13;;;;;;;;;;5094003;28;20082;-56
2021/12/27 08:28:26;;;;;;;36.28;21.20;;;;;;;;;;5094102;28;20044;-53
2021/12/27 08:30:55;;;;;;;50.78;30.40;;;;;;;;;;5094018;28;20030;-57
2021/12/27 08:33:21;;;;;;;50.55;27.38;;;;;;;;;;5093778;28;20160;-58
2021/12/27 08:35:47;;;;;;;45.90;24.88;;;;;;;;;;5093943;28;20081;-57
2021/12/27 08:38:14;;;;;;;38.78;22.25;;;;;;;;;;5092332;28;20028;-57
2021/12/27 08:40:40;;;;;;;40.53;24.05;;;;;;;;;;5092845;28;20024;-56
2021/12/27 08:43:08;;;;;;;41.35;23.60;;;;;;;;;;5093852;28;20028;-58
2021/12/27 08:45:34;;;;;;;46.65;25.83;;;;;;;;;;5093710;28;20032;-57
2021/12/27 08:48:00;;;;;;;48.60;28.75;;;;;;;;;;5093657;28;20028;-54
2021/12/27 08:50:26;;;;;;;45.80;26.17;;;;;;;;;;5093814;28;20111;-56
2021/12/27 08:52:53;;;;;;;42.70;25.25;;;;;;;;;;5093335;28;20407;-57
2021/12/27 08:55:19;;;;;;;69.85;38.25;;;;;;;;;;5093417;28;20032;-54
2021/12/27 08:57:45;;;;;;;45.88;26.48;;;;;;;;;;5093231;28;20048;-55
2021/12/27 09:00:15;;;;;;;54.10;30.52;;;;;;;;;;5093339;28;20442;-50
2021/12/27 09:02:41;;;;;;;61.80;35.13;;;;;;;;;;5093450;28;20032;-53
2021/12/27 09:05:07;;;;;;;48.13;28.17;;;;;;;;;;5093001;28;20066;-53
2021/12/27 09:07:34;;;;;;;80.47;42.75;;;;;;;;;;5093357;28;20036;-51
2021/12/27 09:10:00;;;;;;;55.33;30.75;;;;;;;;;;5093080;28;20016;-42
2021/12/27 09:12:26;;;;;;;65.05;36.40;;;;;;;;;;5092995;28;20134;-44
2021/12/27 09:14:52;;;;;;;64.10;35.22;;;;;;;;;;5092823;28;20039;-41
2021/12/27 09:17:18;;;;;;;69.60;34.53;;;;;;;;;;5093178;28;20177;-43
2021/12/27 09:19:44;;;;;;;82.40;44.03;;;;;;;;;;5092822;28;20028;-41
2021/12/27 09:22:13;;;;;;;81.40;41.58;;;;;;;;;;5092844;28;20048;-41
2021/12/27 09:24:40;;;;;;;75.97;42.92;;;;;;;;;;5092964;28;20481;-51
2021/12/27 09:27:06;;;;;;;78.43;40.90;;;;;;;;;;5092349;28;20066;-52
2021/12/27 09:29:32;;;;;;;83.75;44.33;;;;;;;;;;5093120;28;20094;-52
2021/12/27 09:31:58;;;;;;;65.85;35.63;;;;;;;;;;5092946;28;20050;-47
2021/12/27 09:34:24;;;;;;;56.13;32.55;;;;;;;;;;5091571;28;20035;-52
2021/12/27 09:36:50;;;;;;;55.58;30.60;;;;;;;;;;5090551;28;20039;-48
2021/12/27 09:39:19;;;;;;;62.33;34.67;;;;;;;;;;5091585;28;20073;-50
2021/12/27 09:41:46;;;;;;;67.35;36.42;;;;;;;;;;5091113;28;20038;-52
2021/12/27 09:44:12;;;;;;;65.45;36.55;;;;;;;;;;5090984;28;20024;-51
2021/12/27 09:46:38;;;;;;;61.85;32.70;;;;;;;;;;5090833;28;20100;-49
2021/12/27 09:49:07;;;;;;;48.65;25.65;;;;;;;;;;5089633;28;20028;-56
2021/12/27 09:51:34;;;;;;;43.22;25.98;;;;;;;;;;5091033;28;20025;-54
2021/12/27 09:54:01;;;;;;;50.20;27.60;;;;;;;;;;5091126;28;20405;-57
2021/12/27 09:56:27;;;;;;;46.55;26.23;;;;;;;;;;5089631;28;20439;-56
2021/12/27 09:58:54;;;;;;;50.17;25.48;;;;;;;;;;5090966;28;20082;-51
2021/12/27 10:01:20;;;;;;;39.75;23.30;;;;;;;;;;5091588;28;20024;-54
2021/12/27 10:03:49;;;;;;;44.80;23.95;;;;;;;;;;5091331;28;20106;-57
2021/12/27 10:06:15;;;;;;;40.08;23.92;;;;;;;;;;5091290;28;20032;-57
2021/12/27 10:08:50;;;;;;;47.80;27.52;;;;;;;;;;5090874;28;20020;-54
2021/12/27 10:11:36;;;;;;;36.92;22.77;;;;;;;;;;5089761;28;20028;-55
2021/12/27 10:14:07;;;;;;;53.67;28.73;;;;;;;;;;5090750;28;20035;-57
2021/12/27 10:16:36;;;;;;;39.50;22.25;;;;;;;;;;5090986;28;20500;-55
2021/12/27 10:19:04;;;;;;;36.15;23.73;;;;;;;;;;5090762;28;20043;-56
2021/12/27 10:21:30;;;;;;;51.15;28.95;;;;;;;;;;5090937;28;20081;-57
2021/12/27 10:24:04;;;;;;;51.63;32.20;;;;;;;;;;5090687;28;20026;-57
2021/12/27 10:26:31;;;;;;;58.75;34.17;;;;;;;;;;5088824;28;20028;-60
2021/12/27 10:29:27;;;;;;;46.55;29.00;;;;;;;;;;5090648;28;20031;-59
2021/12/27 10:32:01;;;;;;;49.88;29.83;;;;;;;;;;5028059;28;20111;-49
2021/12/27 10:34:29;;;;;;;44.97;25.23;;;;;;;;;;5026101;28;20049;-48
2021/12/27 10:37:00;;;;;;;59.78;30.85;;;;;;;;;;5027973;28;20050;-45
2021/12/27 10:39:26;;;;;;;;;;;;;;;;;;5026376;28;20152;-51
2021/12/27 10:41:52;;;;;;;51.80;27.35;;;;;;;;;;5028262;28;20004;-51
2021/12/27 10:44:19;;;;;;;42.88;23.33;;;;;;;;;;5028149;28;20033;-47
2021/12/27 10:46:45;;;;;;;61.47;32.33;;;;;;;;;;5028867;28;20025;-49
2021/12/27 10:49:11;;;;;;;56.72;32.35;;;;;;;;;;5027920;28;20042;-55
2021/12/27 10:51:37;;;;;;;80.20;42.10;;;;;;;;;;5026001;28;20135;-53
2021/12/27 10:54:08;;;;;;;74.13;42.53;;;;;;;;;;5028597;28;20017;-57
2021/12/27 10:56:51;;;;;;;91.30;48.88;;;;;;;;;;5029151;28;20052;-52
2021/12/27 10:59:18;;;;;;;93.95;51.53;;;;;;;;;;5029409;28;20494;-49
2021/12/27 11:01:46;;;;;;;75.90;42.38;;;;;;;;;;5029354;28;20497;-52
2021/12/27 11:04:16;;;;;;;98.22;51.42;;;;;;;;;;5031996;28;20025;-54
2021/12/27 11:06:42;;;;;;;89.95;48.95;;;;;;;;;;5033051;28;20505;-53
2021/12/27 11:09:09;;;;;;;106.25;55.95;;;;;;;;;;5087414;28;20454;-56
2021/12/27 11:11:35;;;;;;;114.65;60.83;;;;;;;;;;5095721;28;20382;-55
2021/12/27 11:14:02;;;;;;;93.82;52.45;;;;;;;;;;5095288;28;20024;-63
2021/12/27 11:16:28;;;;;;;114.70;61.40;;;;;;;;;;5095525;28;20020;-56
2021/12/27 11:18:58;;;;;;;100.40;55.72;;;;;;;;;;5095443;28;20055;-56
2021/12/27 11:21:29;;;;;;;103.70;58.03;;;;;;;;;;5095283;28;20028;-42
2021/12/27 11:23:55;;;;;;;112.95;60.55;;;;;;;;;;5095184;28;20362;-48
2021/12/27 11:26:22;;;;;;;91.78;49.42;;;;;;;;;;5095056;28;20028;-48
2021/12/27 11:28:49;;;;;;;86.13;45.80;;;;;;;;;;5095029;28;20020;-46
2021/12/27 11:31:24;;;;;;;106.05;55.85;;;;;;;;;;5094993;28;20028;-46
2021/12/27 11:33:58;;;;;;;69.53;38.42;;;;;;;;;;5095355;28;20036;-48
2021/12/27 11:36:25;;;;;;;75.35;41.20;;;;;;;;;;5094654;28;20382;-48
2021/12/27 11:38:51;;;;;;;74.50;43.65;;;;;;;;;;5095142;28;20048;-50
2021/12/27 11:41:28;;;;;;;79.10;43.42;;;;;;;;;;5094736;28;20416;-49
2021/12/27 11:43:58;;;;;;;70.93;39.58;;;;;;;;;;5094729;28;20024;-47
2021/12/27 11:46:29;;;;;;;101.88;54.90;;;;;;;;;;5095030;28;20431;-47
2021/12/27 11:48:56;;;;;;;58.33;34.38;;;;;;;;;;5094649;28;20024;-52
2021/12/27 11:51:37;;;;;;;72.63;38.40;;;;;;;;;;5094761;28;20465;-50
2021/12/27 11:54:04;;;;;;;51.78;30.00;;;;;;;;;;5094653;28;20112;-50
2021/12/27 11:56:39;;;;;;;66.32;36.78;;;;;;;;;;5094370;28;20093;-48
2021/12/27 11:59:23;;;;;;;129.30;67.63;;;;;;;;;;5094897;28;20028;-53
2021/12/27 12:01:53;;;;;;;97.05;50.80;;;;;;;;;;5094365;28;20053;-49
2021/12/27 12:04:38;;;;;;;93.32;48.47;;;;;;;;;;5094174;28;20027;-51
2021/12/27 12:07:08;;;;;;;99.30;50.55;;;;;;;;;;5094762;28;20032;-49
2021/12/27 12:09:45;;;;;;;124.75;65.35;;;;;;;;;;5094470;28;20020;-50
2021/12/27 12:12:13;;;;;;;136.35;68.60;;;;;;;;;;5094288;28;20095;-51
2021/12/27 12:14:40;;;;;;;77.75;41.70;;;;;;;;;;5094238;28;20031;-52
2021/12/27 12:17:07;;;;;;;92.45;49.63;;;;;;;;;;5094105;28;20035;-52
2021/12/27 12:19:34;;;;;;;129.60;66.13;;;;;;;;;;5094379;28;20490;-51
2021/12/27 12:22:00;;;;;;;86.32;44.90;;;;;;;;;;5094130;28;20053;-47
2021/12/27 12:24:27;;;;;;;123.72;63.67;;;;;;;;;;5094272;28;20020;-54
2021/12/27 12:27:03;;;;;;;88.25;45.00;;;;;;;;;;5093605;28;20110;-51
2021/12/27 12:29:39;;;;;;;89.10;46.78;;;;;;;;;;5092763;28;20027;-47
2021/12/27 12:32:06;;;;;;;69.68;38.60;;;;;;;;;;5066335;28;20376;-49
2021/12/27 12:34:35;;;;;;;66.00;37.63;;;;;;;;;;5064668;28;20024;-50
2021/12/27 12:37:03;;;;;;;64.63;35.67;;;;;;;;;;5064858;28;20042;-50
2021/12/27 12:39:43;;;;;;;74.63;40.60;;;;;;;;;;5063697;28;20369;-50
2021/12/27 12:42:16;;;;;;;69.25;37.80;;;;;;;;;;5063656;28;20028;-50
2021/12/27 12:44:51;;;;;;;67.97;37.90;;;;;;;;;;5073890;28;20055;-49
2021/12/27 12:47:18;;;;;;;90.50;45.80;;;;;;;;;;5063660;28;20070;-46
2021/12/27 12:49:44;;;;;;;95.03;47.83;;;;;;;;;;5063233;28;20024;-49
2021/12/27 12:52:10;;;;;;;85.60;44.45;;;;;;;;;;5063742;28;20591;-52
2021/12/27 12:54:38;;;;;;;115.10;59.72;;;;;;;;;;5062285;28;20572;-48
2021/12/27 12:57:04;;;;;;;105.93;56.58;;;;;;;;;;5062884;28;20425;-52
2021/12/27 12:59:32;;;;;;;95.38;53.00;;;;;;;;;;5063307;28;20123;-52
2021/12/27 13:02:04;;;;;;;100.53;53.40;;;;;;;;;;5063243;28;20030;-51
2021/12/27 13:04:49;;;;;;;109.57;59.63;;;;;;;;;;5063141;28;20020;-48
2021/12/27 13:07:17;;;;;;;113.10;57.97;;;;;;;;;;5063524;28;20548;-46
2021/12/27 13:09:47;;;;;;;100.43;52.42;;;;;;;;;;5063212;28;20406;-50
2021/12/27 13:12:15;;;;;;;101.28;55.45;;;;;;;;;;5063838;28;20063;-48
2021/12/27 13:14:41;;;;;;;103.03;54.17;;;;;;;;;;5064113;28;20031;-48
2021/12/27 13:17:20;;;;;;;108.15;58.25;;;;;;;;;;5063330;28;20520;-50
2021/12/27 13:19:58;;;;;;;123.63;63.13;;;;;;;;;;5062652;28;20686;-49
2021/12/27 13:23:00;;;;;;;113.95;57.15;;;;;;;;;;5062370;28;20463;-48
2021/12/27 13:25:37;;;;;;;97.95;52.65;;;;;;;;;;5019773;28;20029;-49
2021/12/27 13:28:08;;;;;;;97.00;50.65;;;;;;;;;;5019274;28;20113;-51
2021/12/27 13:30:48;;;;;;;129.88;67.45;;;;;;;;;;5020713;28;20601;-50
2021/12/27 13:33:14;;;;;;;150.20;76.10;;;;;;;;;;5019582;28;20091;-51
2021/12/27 13:35:41;;;;;;;145.18;73.93;;;;;;;;;;5019629;28;20051;-50
2021/12/27 13:38:19;;;;;;;105.80;54.97;;;;;;;;;;5020962;28;20068;-53
2021/12/27 13:40:48;;;;;;;95.72;52.17;;;;;;;;;;5019443;28;20140;-50
2021/12/27 13:43:14;;;;;;;92.65;45.90;;;;;;;;;;5020731;28;20034;-46
2021/12/27 13:45:42;;;;;;;79.28;43.05;;;;;;;;;;5019172;28;20533;-46
2021/12/27 13:48:12;;;;;;;63.50;36.45;;;;;;;;;;5019855;28;20029;-46
2021/12/27 13:50:39;;;;;;;64.55;35.58;;;;;;;;;;5019057;28;20116;-49
2021/12/27 13:53:12;;;;;;;58.22;34.70;;;;;;;;;;5020665;28;20164;-52
2021/12/27 13:55:39;;;;;;;66.85;37.15;;;;;;;;;;5019207;28;20021;-52
2021/12/27 13:58:12;;;;;;;70.50;39.67;;;;;;;;;;5019169;28;20165;-49
2021/12/27 14:00:38;;;;;;;78.80;42.95;;;;;;;;;;5060525;28;20363;-48
2021/12/27 14:03:04;;;;;;;75.03;42.10;;;;;;;;;;5062229;28;20078;-52
2021/12/27 14:05:33;;;;;;;77.22;42.90;;;;;;;;;;5062230;28;20027;-53
2021/12/27 14:08:09;;;;;;;71.20;40.35;;;;;;;;;;5061945;28;20036;-52
2021/12/27 14:10:35;;;;;;;78.03;42.72;;;;;;;;;;5061878;28;20024;-49
2021/12/27 14:13:02;;;;;;;76.75;44.13;;;;;;;;;;5062161;28;20124;-50
2021/12/27 14:15:29;;;;;;;79.75;45.50;;;;;;;;;;5062540;28;20017;-51
2021/12/27 14:18:06;;;;;;;76.15;43.17;;;;;;;;;;5061738;28;20032;-50
2021/12/27 14:20:33;;;;;;;83.82;45.97;;;;;;;;;;5062932;28;20306;-50
2021/12/27 14:23:06;;;;;;;91.28;48.40;;;;;;;;;;5061935;28;20027;-48
2021/12/27 14:25:32;;;;;;;85.30;46.80;;;;;;;;;;5061901;28;20028;-50
2021/12/27 14:27:58;;;;;;;84.88;46.20;;;;;;;;;;5061716;28;20054;-51
2021/12/27 14:30:32;;;;;;;78.90;43.03;;;;;;;;;;5061881;28;20025;-51
2021/12/27 14:33:01;;;;;;;68.60;39.50;;;;;;;;;;5061637;28;20028;-47
2021/12/27 14:35:43;;;;;;;73.30;39.50;;;;;;;;;;5061692;28;20431;-51
2021/12/27 14:38:10;;;;;;;82.13;41.80;;;;;;;;;;5062416;28;20376;-50
2021/12/27 14:40:37;;;;;;;69.07;38.17;;;;;;;;;;5065720;28;20544;-48
2021/12/27 14:43:03;;;;;;;71.97;37.83;;;;;;;;;;5066181;28;20036;-50
2021/12/27 14:45:30;;;;;;;67.57;35.70;;;;;;;;;;5065846;28;20024;-46
2021/12/27 14:48:00;;;;;;;69.95;36.92;;;;;;;;;;5065575;28;20028;-51
2021/12/27 14:50:31;;;;;;;58.13;33.25;;;;;;;;;;5065165;28;20109;-51
2021/12/27 14:53:00;;;;;;;68.07;35.30;;;;;;;;;;5066990;28;20160;-50
2021/12/27 14:55:27;;;;;;;71.85;37.53;;;;;;;;;;5065792;28;20020;-49
2021/12/27 14:57:53;;;;;;;80.20;39.55;;;;;;;;;;5065365;28;20028;-47